Time;durP1;ratioP1;P1;durP2;ratioP2;P2;SDS_P1;SDS_P2;PMS_P1;PMS_P2;Temp;Humidity;BMP_temperature;BMP_pressure;BME280_temperature;BME280_humidity;BME280_pressure;Samples;Min_cycle;Max_cycle;Signal;HPM_P1;HPM_P2
2021/03/03 00:00:36;;;;;;;65.43;32.60;;;10.00;86.20;;;;;;5106611;28;20201;-76
2021/03/03 00:03:02;;;;;;;61.55;31.58;;;9.90;86.20;;;;;;5103962;28;20243;-74
2021/03/03 00:05:28;;;;;;;61.53;30.92;;;9.90;86.30;;;;;;5106897;28;20200;-75
2021/03/03 00:07:55;;;;;;;61.65;31.95;;;9.80;86.40;;;;;;5102675;28;20266;-75
2021/03/03 00:10:21;;;;;;;56.92;30.77;;;9.80;86.60;;;;;;5106993;28;20231;-77
2021/03/03 00:12:48;;;;;;;58.30;31.88;;;9.80;86.80;;;;;;5101305;27;20672;-74
2021/03/03 00:15:15;;;;;;;62.40;31.70;;;9.70;86.80;;;;;;5103930;28;20715;-75
2021/03/03 00:17:42;;;;;;;58.03;30.80;;;9.70;86.80;;;;;;5106088;28;20673;-75
2021/03/03 00:20:10;;;;;;;56.00;30.70;;;9.60;87.00;;;;;;5105903;28;20258;-75
2021/03/03 00:22:36;;;;;;;62.70;32.00;;;9.60;87.40;;;;;;5103488;28;20596;-75
2021/03/03 00:25:03;;;;;;;61.10;30.73;;;9.60;87.20;;;;;;5103043;28;20263;-75
2021/03/03 00:27:29;;;;;;;58.17;31.55;;;9.50;87.40;;;;;;5107436;28;20715;-75
2021/03/03 00:29:55;;;;;;;60.72;32.03;;;9.50;87.40;;;;;;5103946;28;20201;-75
2021/03/03 00:32:22;;;;;;;64.17;36.93;;;9.50;87.60;;;;;;5104673;28;20795;-75
2021/03/03 00:34:49;;;;;;;66.97;34.97;;;9.80;88.00;;;;;;5104510;28;20238;-76
2021/03/03 00:37:15;;;;;;;61.05;31.77;;;9.70;87.70;;;;;;5105639;28;20208;-75
2021/03/03 00:39:41;;;;;;;69.95;33.75;;;9.60;88.00;;;;;;5106266;28;20228;-75
2021/03/03 00:42:08;;;;;;;60.60;32.58;;;9.60;88.20;;;;;;5105265;28;20594;-75
2021/03/03 00:44:34;;;;;;;58.83;32.15;;;9.50;88.20;;;;;;5103408;28;20719;-75
2021/03/03 00:47:00;;;;;;;61.83;33.33;;;9.50;88.40;;;;;;5104672;28;20201;-76
2021/03/03 00:49:27;;;;;;;61.45;33.45;;;9.40;88.40;;;;;;5107341;27;20193;-75
2021/03/03 00:51:54;;;;;;;58.72;31.60;;;9.40;88.60;;;;;;5103729;28;20673;-75
2021/03/03 00:54:21;;;;;;;63.40;32.80;;;9.40;88.80;;;;;;5101979;28;20213;-76
2021/03/03 00:56:49;;;;;;;62.40;32.72;;;9.30;89.00;;;;;;5104787;28;20225;-75
2021/03/03 00:59:16;;;;;;;62.78;32.80;;;9.30;89.20;;;;;;5102543;28;20197;-75
2021/03/03 01:01:43;;;;;;;61.13;32.00;;;9.30;89.40;;;;;;5107158;28;20279;-76
2021/03/03 01:04:12;;;;;;;57.72;30.65;;;9.30;89.50;;;;;;5101436;28;20213;-75
2021/03/03 01:06:41;;;;;;;56.60;30.63;;;9.30;89.70;;;;;;5107167;28;20284;-75
2021/03/03 01:09:10;;;;;;;60.60;30.77;;;9.30;89.90;;;;;;5101390;28;20206;-75
2021/03/03 01:11:40;;;;;;;60.53;29.70;;;9.30;90.00;;;;;;5104938;28;20222;-75
2021/03/03 01:14:07;;;;;;;58.35;31.23;;;9.30;90.00;;;;;;5103007;28;20201;-74
2021/03/03 01:16:36;;;;;;;52.72;28.90;;;9.30;90.10;;;;;;5103000;28;20684;-75
2021/03/03 01:19:13;;;;;;;55.00;29.70;;;9.20;90.10;;;;;;5104072;28;20201;-74
2021/03/03 01:21:40;;;;;;;55.08;29.17;;;9.20;90.20;;;;;;5108407;27;20593;-73
2021/03/03 01:24:07;;;;;;;52.13;29.10;;;9.20;90.30;;;;;;5106252;28;20206;-73
2021/03/03 01:26:34;;;;;;;51.35;28.00;;;9.10;90.30;;;;;;5106663;28;20208;-74
2021/03/03 01:29:00;;;;;;;59.97;29.90;;;9.00;90.30;;;;;;5109644;28;20193;-74
2021/03/03 01:31:27;;;;;;;55.67;29.25;;;9.00;90.30;;;;;;5108211;28;20205;-75
2021/03/03 01:33:53;;;;;;;61.17;30.77;;;9.00;90.40;;;;;;5109893;28;20201;-74
2021/03/03 01:36:19;;;;;;;58.95;28.88;;;9.00;90.40;;;;;;5110981;28;20193;-74
2021/03/03 01:38:46;;;;;;;55.58;29.35;;;9.00;90.50;;;;;;5108604;28;20201;-74
2021/03/03 01:41:12;;;;;;;54.80;28.45;;;8.90;90.50;;;;;;5108478;28;20661;-74
2021/03/03 01:43:40;;;;;;;58.83;29.17;;;8.90;90.50;;;;;;5108509;28;20544;-74
2021/03/03 01:46:06;;;;;;;56.13;28.52;;;8.90;90.60;;;;;;5110603;28;20209;-74
2021/03/03 01:48:32;;;;;;;53.90;29.35;;;8.90;90.60;;;;;;5107017;28;20593;-75
2021/03/03 01:50:59;;;;;;;52.63;28.77;;;8.90;90.60;;;;;;5109165;28;20661;-75
2021/03/03 01:53:25;;;;;;;51.30;27.95;;;8.90;90.60;;;;;;5110904;27;20232;-74
2021/03/03 01:55:54;;;;;;;49.95;28.42;;;8.90;90.60;;;;;;5109260;28;20197;-73
2021/03/03 01:58:21;;;;;;;53.13;28.02;;;8.80;90.70;;;;;;5107809;28;20692;-74
2021/03/03 02:00:48;;;;;;;55.55;28.23;;;8.80;90.70;;;;;;5103701;28;20212;-74
2021/03/03 02:03:14;;;;;;;57.97;27.35;;;8.80;90.70;;;;;;5108981;28;20262;-75
2021/03/03 02:05:41;;;;;;;57.97;28.85;;;8.80;90.70;;;;;;5108731;27;20662;-74
2021/03/03 02:08:15;;;;;;;55.47;28.38;;;8.70;90.70;;;;;;5105404;28;20209;-74
2021/03/03 02:10:47;;;;;;;52.67;26.23;;;8.70;90.80;;;;;;5107835;28;20198;-74
2021/03/03 02:13:18;;;;;;;51.30;26.38;;;8.70;90.80;;;;;;5109871;28;20189;-74
2021/03/03 02:15:47;;;;;;;53.33;26.35;;;8.70;90.80;;;;;;5108473;28;20208;-76
2021/03/03 02:18:15;;;;;;;50.78;27.02;;;8.70;90.80;;;;;;5107647;28;20209;-75
2021/03/03 02:20:52;;;;;;;50.88;26.25;;;8.60;90.80;;;;;;5108450;28;20212;-73
2021/03/03 02:23:32;;;;;;;53.70;27.52;;;8.60;90.80;;;;;;5109143;27;22241;-75
2021/03/03 02:26:00;;;;;;;55.70;30.13;;;8.60;90.80;;;;;;5107133;28;20201;-74
2021/03/03 02:28:26;;;;;;;50.45;26.25;;;8.50;90.90;;;;;;5108753;27;20224;-74
2021/03/03 02:30:53;;;;;;;51.83;27.58;;;8.50;90.90;;;;;;5105308;28;20677;-74
2021/03/03 02:33:22;;;;;;;54.47;28.77;;;8.50;90.90;;;;;;5107069;27;20196;-74
2021/03/03 02:35:49;;;;;;;53.88;27.95;;;8.50;91.00;;;;;;5107280;28;20208;-74
2021/03/03 02:38:17;;;;;;;54.22;28.55;;;8.50;91.00;;;;;;5105288;28;20208;-74
2021/03/03 02:40:44;;;;;;;54.25;28.77;;;8.40;91.00;;;;;;5106979;28;20194;-74
2021/03/03 02:43:14;;;;;;;54.83;27.27;;;8.40;91.00;;;;;;5107986;28;20232;-75
2021/03/03 02:45:41;;;;;;;54.90;28.35;;;8.40;91.10;;;;;;5107738;28;20208;-75
2021/03/03 02:48:09;;;;;;;52.17;27.67;;;8.30;91.10;;;;;;5109236;28;20208;-74
2021/03/03 02:50:36;;;;;;;51.38;27.10;;;8.30;91.10;;;;;;5107055;28;20258;-74
2021/03/03 02:53:03;;;;;;;51.47;27.58;;;8.30;91.20;;;;;;5106895;28;20196;-76
2021/03/03 02:55:30;;;;;;;57.80;27.75;;;8.30;91.20;;;;;;5107535;28;20208;-73
2021/03/03 02:57:59;;;;;;;44.67;25.60;;;8.30;91.30;;;;;;5107488;27;20239;-75
2021/03/03 03:00:29;;;;;;;49.08;26.58;;;8.20;91.30;;;;;;5106266;28;20197;-73
2021/03/03 03:03:02;;;;;;;53.30;27.70;;;8.20;91.30;;;;;;5106811;28;20225;-74
2021/03/03 03:05:31;;;;;;;53.35;26.88;;;8.20;91.30;;;;;;5106939;28;20224;-76
2021/03/03 03:08:01;;;;;;;54.67;27.33;;;8.20;91.30;;;;;;5107476;28;20197;-75
2021/03/03 03:10:28;;;;;;;54.15;31.83;;;8.20;91.30;;;;;;5103668;28;20419;-74
2021/03/03 03:12:57;;;;;;;53.22;31.27;;;8.50;91.20;;;;;;5106087;28;20446;-76
2021/03/03 03:15:26;;;;;;;52.42;32.42;;;8.80;90.70;;;;;;5105392;28;20451;-74
2021/03/03 03:17:59;;;;;;;51.10;30.98;;;9.00;90.60;;;;;;5105615;28;20471;-74
2021/03/03 03:20:28;;;;;;;54.33;32.17;;;9.10;90.30;;;;;;5104982;28;20856;-75
2021/03/03 03:22:54;;;;;;;52.42;31.52;;;9.30;90.30;;;;;;5106827;28;20433;-75
2021/03/03 03:25:21;;;;;;;50.47;32.30;;;9.30;90.20;;;;;;5104652;27;20887;-74
2021/03/03 03:27:49;;;;;;;55.47;32.23;;;9.40;90.30;;;;;;5108283;27;20428;-76
2021/03/03 03:30:19;;;;;;;50.45;32.40;;;9.50;90.70;;;;;;5105427;27;20911;-75
2021/03/03 03:32:46;;;;;;;55.55;31.25;;;9.50;91.40;;;;;;5103557;27;20453;-75
2021/03/03 03:35:14;;;;;;;49.97;31.77;;;9.60;91.30;;;;;;5104351;28;21339;-74
2021/03/03 03:37:41;;;;;;;54.08;32.22;;;9.60;91.30;;;;;;5102534;28;20492;-74
2021/03/03 03:40:09;;;;;;;51.33;31.35;;;9.60;91.50;;;;;;5102207;28;20430;-74
2021/03/03 03:42:36;;;;;;;52.17;32.60;;;9.70;91.60;;;;;;5103826;28;20477;-76
2021/03/03 03:45:04;;;;;;;50.70;32.00;;;9.70;91.60;;;;;;5105804;28;20427;-74
2021/03/03 03:47:31;;;;;;;54.53;31.97;;;9.80;91.70;;;;;;5105178;28;20488;-75
2021/03/03 03:50:02;;;;;;;53.63;32.25;;;9.80;92.20;;;;;;5106126;28;20796;-75
2021/03/03 03:52:29;;;;;;;58.88;32.03;;;9.80;92.30;;;;;;5105834;28;20420;-75
2021/03/03 03:54:55;;;;;;;54.17;32.35;;;9.80;92.40;;;;;;5105777;28;20465;-74
2021/03/03 03:57:23;;;;;;;56.40;31.88;;;9.80;92.30;;;;;;5103877;28;20758;-74
2021/03/03 03:59:50;;;;;;;48.92;31.50;;;9.90;92.30;;;;;;5104696;28;20424;-74
2021/03/03 04:02:16;;;;;;;56.78;31.55;;;9.90;92.10;;;;;;5101194;28;21037;-75
2021/03/03 04:04:43;;;;;;;52.63;31.67;;;9.80;91.80;;;;;;5104802;28;20412;-75
2021/03/03 04:07:10;;;;;;;54.00;32.42;;;9.80;91.70;;;;;;5102451;27;20436;-74
2021/03/03 04:09:37;;;;;;;55.20;32.65;;;9.80;92.20;;;;;;5104104;28;20893;-77
2021/03/03 04:12:04;;;;;;;55.28;33.78;;;9.80;92.40;;;;;;5099204;27;20431;-75
2021/03/03 04:14:30;;;;;;;57.97;33.83;;;9.80;92.40;;;;;;5105966;28;20423;-74
2021/03/03 04:16:57;;;;;;;61.85;34.75;;;9.80;92.80;;;;;;5104377;28;20424;-75
2021/03/03 04:19:23;;;;;;;63.72;35.10;;;9.80;93.20;;;;;;5104569;28;20412;-74
2021/03/03 04:21:49;;;;;;;61.87;35.67;;;9.80;93.60;;;;;;5105326;28;20420;-75
2021/03/03 04:24:17;;;;;;;63.70;35.80;;;9.80;93.90;;;;;;5104947;28;20423;-75
2021/03/03 04:26:43;;;;;;;63.13;35.95;;;9.80;94.10;;;;;;5105346;28;20427;-75
2021/03/03 04:29:09;;;;;;;63.53;36.10;;;9.80;94.40;;;;;;5104126;28;20427;-74
2021/03/03 04:31:35;;;;;;;65.25;35.60;;;9.80;94.40;;;;;;5102853;28;20969;-75
2021/03/03 04:34:03;;;;;;;78.25;35.75;;;9.70;94.50;;;;;;5106118;28;20889;-75
2021/03/03 04:36:29;;;;;;;86.70;34.40;;;9.70;94.70;;;;;;5102117;28;20480;-75
2021/03/03 04:38:55;;;;;;;118.65;34.42;;;9.70;94.80;;;;;;5105146;28;20424;-76
2021/03/03 04:41:23;;;;;;;243.07;31.38;;;9.60;94.80;;;;;;5104103;28;20439;-76
2021/03/03 04:43:49;;;;;;;208.27;26.97;;;9.60;94.80;;;;;;5104746;28;20431;-76
2021/03/03 04:46:15;;;;;;;211.53;22.33;;;9.50;94.80;;;;;;5106238;28;20473;-77
2021/03/03 04:48:42;;;;;;;235.80;21.80;;;9.40;94.60;;;;;;5103948;28;20546;-76
2021/03/03 04:51:08;;;;;;;290.00;20.80;;;9.30;94.60;;;;;;5104803;28;20431;-77
2021/03/03 04:53:34;;;;;;;255.32;20.67;;;9.10;94.70;;;;;;5103004;28;20416;-76
2021/03/03 04:56:01;;;;;;;264.10;19.27;;;9.00;94.80;;;;;;5105496;28;20424;-75
2021/03/03 04:58:28;;;;;;;110.22;19.63;;;8.90;94.90;;;;;;5105379;28;20446;-76
2021/03/03 05:00:54;;;;;;;178.57;18.65;;;8.80;95.30;;;;;;5101604;28;20443;-76
2021/03/03 05:03:20;;;;;;;204.77;19.60;;;8.70;95.50;;;;;;5105427;28;20438;-75
2021/03/03 05:05:47;;;;;;;170.35;19.35;;;8.70;96.00;;;;;;5102783;28;20431;-76
2021/03/03 05:08:13;;;;;;;243.32;19.02;;;8.60;95.80;;;;;;5103015;28;20427;-75
2021/03/03 05:10:39;;;;;;;206.10;18.88;;;8.60;96.00;;;;;;5099700;28;20830;-75
2021/03/03 05:13:13;;;;;;;126.82;18.25;;;8.60;96.00;;;;;;5105739;28;20889;-75
2021/03/03 05:15:40;;;;;;;153.30;19.58;;;8.60;96.20;;;;;;5101796;28;20431;-75
2021/03/03 05:18:07;;;;;;;250.15;19.73;;;8.50;96.30;;;;;;5105345;28;20909;-76
2021/03/03 05:20:33;;;;;;;200.70;20.00;;;8.50;96.40;;;;;;5102850;28;20431;-76
2021/03/03 05:23:00;;;;;;;124.03;19.80;;;8.50;96.50;;;;;;5103403;28;20441;-75
2021/03/03 05:25:26;;;;;;;258.30;20.10;;;8.40;96.60;;;;;;5101534;28;20819;-75
2021/03/03 05:27:53;;;;;;;197.55;19.83;;;8.40;96.70;;;;;;5102604;28;20428;-74
2021/03/03 05:30:21;;;;;;;119.57;20.23;;;8.40;96.80;;;;;;5100169;28;20434;-75
2021/03/03 05:32:48;;;;;;;107.15;20.60;;;8.30;97.10;;;;;;5103962;28;20468;-75
2021/03/03 05:35:14;;;;;;;65.43;20.50;;;8.30;97.40;;;;;;5102789;28;20920;-75
2021/03/03 05:37:41;;;;;;;81.27;19.83;;;8.30;97.60;;;;;;5103678;28;20510;-75
2021/03/03 05:40:09;;;;;;;60.42;20.35;;;8.40;97.70;;;;;;5101297;28;20419;-75
2021/03/03 05:42:35;;;;;;;98.20;19.90;;;8.40;97.60;;;;;;5103867;28;20480;-75
2021/03/03 05:45:02;;;;;;;126.72;20.88;;;8.50;97.40;;;;;;5104920;28;20469;-75
2021/03/03 05:47:33;;;;;;;77.45;21.05;;;8.50;97.20;;;;;;5102906;28;20423;-75
2021/03/03 05:50:02;;;;;;;48.53;21.42;;;8.50;97.30;;;;;;5100748;28;20446;-75
2021/03/03 05:52:31;;;;;;;79.20;21.67;;;8.60;97.30;;;;;;5100849;28;20420;-75
2021/03/03 05:54:58;;;;;;;47.35;22.15;;;8.60;97.40;;;;;;5104590;28;20431;-75
2021/03/03 05:57:26;;;;;;;41.78;22.17;;;8.60;97.40;;;;;;5103457;28;20424;-75
2021/03/03 05:59:53;;;;;;;50.47;22.35;;;8.60;97.40;;;;;;5103821;28;20431;-75
2021/03/03 06:02:21;;;;;;;41.50;22.35;;;8.70;97.40;;;;;;5102927;28;20446;-75
2021/03/03 06:04:48;;;;;;;43.00;22.95;;;8.70;97.30;;;;;;5103988;28;20420;-75
2021/03/03 06:07:16;;;;;;;59.85;23.58;;;8.80;97.30;;;;;;5104911;28;20419;-75
2021/03/03 06:09:42;;;;;;;77.75;24.30;;;8.80;97.10;;;;;;5107661;28;20469;-75
2021/03/03 06:12:09;;;;;;;54.80;24.73;;;8.80;96.90;;;;;;5104422;28;20412;-76
2021/03/03 06:14:35;;;;;;;70.13;25.40;;;8.80;96.90;;;;;;5106306;27;20431;-76
2021/03/03 06:17:02;;;;;;;66.10;25.58;;;8.80;96.90;;;;;;5106829;28;20424;-79
2021/03/03 06:19:29;;;;;;;65.78;26.42;;;8.80;96.80;;;;;;5110134;28;20426;-78
2021/03/03 06:21:55;;;;;;;105.82;27.73;;;8.80;96.80;;;;;;5110223;28;20428;-77
2021/03/03 06:24:33;;;;;;;132.73;28.67;;;8.80;96.50;;;;;;5108593;28;20458;-78
2021/03/03 06:27:02;;;;;;;82.05;29.80;;;8.80;96.50;;;;;;5110204;28;20769;-78
2021/03/03 06:29:29;;;;;;;68.63;30.07;;;8.80;96.60;;;;;;5109309;28;20441;-78
2021/03/03 06:32:01;;;;;;;87.60;30.53;;;8.70;96.70;;;;;;5110771;27;20423;-78
2021/03/03 06:34:27;;;;;;;64.53;29.98;;;8.70;96.80;;;;;;5111882;28;20579;-76
2021/03/03 06:36:59;;;;;;;77.87;30.13;;;8.70;96.90;;;;;;5111453;27;20404;-76
2021/03/03 06:39:28;;;;;;;93.43;30.30;;;8.70;96.90;;;;;;5110545;28;20416;-74
2021/03/03 06:41:56;;;;;;;106.47;31.80;;;8.70;96.90;;;;;;5109299;28;20770;-75
2021/03/03 06:44:24;;;;;;;96.90;33.63;;;8.70;97.10;;;;;;5109795;28;21104;-79
2021/03/03 06:47:04;;;;;;;125.22;32.50;;;8.70;97.00;;;;;;5121404;27;20416;-78
2021/03/03 06:49:31;;;;;;;105.20;32.28;;;8.70;97.10;;;;;;5109720;28;20481;-77
2021/03/03 06:51:57;;;;;;;157.13;33.40;;;8.70;96.80;;;;;;5108680;28;20435;-76
2021/03/03 06:54:25;;;;;;;80.47;33.88;;;8.70;96.90;;;;;;5107262;28;20435;-78
2021/03/03 06:56:53;;;;;;;168.65;35.70;;;8.70;96.90;;;;;;5107878;28;20889;-78
2021/03/03 06:59:22;;;;;;;150.30;36.25;;;8.70;96.80;;;;;;5108810;28;20443;-77
2021/03/03 07:01:50;;;;;;;124.30;37.15;;;8.60;97.00;;;;;;5110343;28;20408;-78
2021/03/03 07:04:28;;;;;;;143.50;38.03;;;8.60;97.20;;;;;;5109018;28;20411;-77
2021/03/03 07:06:57;;;;;;;98.95;38.85;;;8.60;97.20;;;;;;5110487;28;21277;-78
2021/03/03 07:09:24;;;;;;;70.85;37.78;;;8.60;97.40;;;;;;5108491;28;20450;-77
2021/03/03 07:12:02;;;;;;;108.83;38.83;;;8.60;97.70;;;;;;5110434;28;20412;-77
2021/03/03 07:14:30;;;;;;;100.85;40.63;;;8.60;97.80;;;;;;5109104;28;20432;-77
2021/03/03 07:17:01;;;;;;;149.30;38.03;;;8.60;97.90;;;;;;5110079;28;20551;-77
2021/03/03 07:19:27;;;;;;;116.28;39.17;;;8.60;97.90;;;;;;5107936;28;20807;-77
2021/03/03 07:21:54;;;;;;;84.95;38.45;;;8.60;97.80;;;;;;5109024;28;20415;-77
2021/03/03 07:24:21;;;;;;;110.60;39.88;;;8.60;97.90;;;;;;5107716;28;20424;-77
2021/03/03 07:26:47;;;;;;;90.85;39.92;;;8.70;97.90;;;;;;5106765;28;20423;-78
2021/03/03 07:29:15;;;;;;;86.03;40.20;;;8.70;97.90;;;;;;5107887;28;20481;-80
2021/03/03 07:31:42;;;;;;;71.95;40.58;;;8.70;97.90;;;;;;5126048;27;20756;-77
2021/03/03 07:34:09;;;;;;;74.47;41.60;;;8.70;97.90;;;;;;5105026;28;20404;-75
2021/03/03 07:36:36;;;;;;;132.57;41.30;;;8.70;97.80;;;;;;5106281;28;21837;-76
2021/03/03 07:39:04;;;;;;;192.98;41.42;;;8.70;97.70;;;;;;5108016;28;20445;-75
2021/03/03 07:41:41;;;;;;;105.07;41.72;;;8.70;97.50;;;;;;5105063;28;20418;-76
2021/03/03 07:44:10;;;;;;;110.57;42.00;;;8.60;97.80;;;;;;5103292;28;20424;-75
2021/03/03 07:46:38;;;;;;;92.22;43.75;;;8.60;97.90;;;;;;5104081;28;20424;-76
2021/03/03 07:49:07;;;;;;;113.68;43.03;;;8.60;98.50;;;;;;5105682;28;20902;-76
2021/03/03 07:51:34;;;;;;;92.72;44.08;;;8.60;98.40;;;;;;5106051;28;20472;-74
2021/03/03 07:54:01;;;;;;;153.48;44.97;;;8.60;98.40;;;;;;5107361;28;20396;-75
2021/03/03 07:56:28;;;;;;;108.70;44.67;;;8.70;98.40;;;;;;5105973;28;20476;-74
2021/03/03 07:58:55;;;;;;;131.20;45.83;;;8.60;98.40;;;;;;5109153;28;20423;-74
2021/03/03 08:01:22;;;;;;;136.33;47.13;;;8.60;98.50;;;;;;5105704;28;20413;-77
2021/03/03 08:03:50;;;;;;;135.63;48.28;;;8.60;98.80;;;;;;5108954;28;20986;-77
2021/03/03 08:06:24;;;;;;;145.20;47.80;;;8.60;98.90;;;;;;5107849;28;20423;-77
2021/03/03 08:09:18;;;;;;;134.27;51.22;;;8.60;99.10;;;;;;5106097;28;20473;-77
2021/03/03 08:11:46;;;;;;;103.32;50.42;;;8.60;99.30;;;;;;5107643;28;20871;-77
2021/03/03 08:14:30;;;;;;;115.30;48.38;;;8.60;99.50;;;;;;5109288;28;20415;-77
2021/03/03 08:16:57;;;;;;;99.80;47.83;;;8.60;99.50;;;;;;5107097;28;20412;-78
2021/03/03 08:19:59;;;;;;;83.45;46.30;;;8.70;99.20;;;;;;5106572;28;20415;-76
2021/03/03 08:22:51;;;;;;;81.38;43.47;;;8.70;98.70;;;;;;5108402;28;20424;-78
2021/03/03 08:25:43;;;;;;;76.18;44.58;;;8.70;98.20;;;;;;5104027;28;20404;-77
2021/03/03 08:28:29;;;;;;;76.78;44.35;;;8.70;98.30;;;;;;5103413;27;20436;-78
2021/03/03 08:31:30;;;;;;;78.38;44.95;;;8.70;98.50;;;;;;5106425;28;20416;-76
2021/03/03 08:33:58;;;;;;;73.75;45.00;;;8.70;98.40;;;;;;5106311;28;20480;-76
2021/03/03 08:36:54;;;;;;;83.70;46.72;;;8.70;98.20;;;;;;5108036;28;20423;-76
2021/03/03 08:39:31;;;;;;;85.33;46.77;;;8.80;98.30;;;;;;5106213;28;20432;-76
2021/03/03 08:41:58;;;;;;;84.50;46.10;;;8.80;98.60;;;;;;5106871;28;20420;-76
2021/03/03 08:44:24;;;;;;;80.88;45.97;;;8.90;98.70;;;;;;5107754;28;20431;-76
2021/03/03 08:46:53;;;;;;;80.77;44.83;;;8.90;98.70;;;;;;5108028;28;20757;-77
2021/03/03 08:49:30;;;;;;;79.00;44.20;;;8.90;98.60;;;;;;5108477;28;20877;-79
2021/03/03 08:52:12;;;;;;;74.20;43.97;;;9.00;98.30;;;;;;5105347;28;20896;-75
2021/03/03 08:54:45;;;;;;;73.40;42.88;;;9.00;97.80;;;;;;5106324;28;20938;-75
2021/03/03 08:57:31;;;;;;;71.47;43.17;;;9.10;97.60;;;;;;5107035;28;20452;-75
2021/03/03 08:59:58;;;;;;;74.45;42.47;;;9.10;97.40;;;;;;5108403;28;20431;-76
2021/03/03 09:02:35;;;;;;;75.80;43.20;;;9.10;97.30;;;;;;5109089;28;20496;-76
2021/03/03 09:05:11;;;;;;;75.53;43.28;;;9.10;97.20;;;;;;5107289;28;20552;-76
2021/03/03 09:07:38;;;;;;;78.97;43.05;;;9.20;97.10;;;;;;5108600;28;20412;-75
2021/03/03 09:10:10;;;;;;;78.13;44.75;;;9.20;97.00;;;;;;5107331;28;20446;-75
2021/03/03 09:12:41;;;;;;;77.53;43.28;;;9.20;97.10;;;;;;5107721;28;20438;-75
2021/03/03 09:15:10;;;;;;;77.70;43.77;;;9.20;97.40;;;;;;5108779;28;20408;-74
2021/03/03 09:17:37;;;;;;;79.43;43.58;;;9.20;97.50;;;;;;5108644;28;20412;-74
2021/03/03 09:20:08;;;;;;;70.70;42.30;;;9.20;97.20;;;;;;5108755;28;20411;-74
2021/03/03 09:22:36;;;;;;;70.15;41.42;;;9.30;97.30;;;;;;5106016;28;20431;-74
2021/03/03 09:25:12;;;;;;;71.10;40.08;;;9.30;97.10;;;;;;5108012;28;20453;-75
2021/03/03 09:27:40;;;;;;;74.03;39.70;;;9.30;97.10;;;;;;5108199;28;20476;-74
2021/03/03 09:30:08;;;;;;;72.07;38.15;;;9.30;96.60;;;;;;5106339;28;20408;-74
2021/03/03 09:32:34;;;;;;;74.93;39.75;;;9.30;96.30;;;;;;5107918;28;20956;-75
2021/03/03 09:35:03;;;;;;;71.53;39.10;;;9.30;96.40;;;;;;5107318;28;20460;-75
2021/03/03 09:37:36;;;;;;;76.22;41.03;;;9.40;96.10;;;;;;5107971;28;20412;-76
2021/03/03 09:40:04;;;;;;;79.43;42.43;;;9.40;96.10;;;;;;5108461;28;20499;-75
2021/03/03 09:42:39;;;;;;;72.30;40.50;;;9.40;96.20;;;;;;5112520;28;20420;-74
2021/03/03 09:45:08;;;;;;;74.68;40.53;;;9.40;96.40;;;;;;5108469;28;20424;-74
2021/03/03 09:47:36;;;;;;;75.17;41.83;;;9.40;96.40;;;;;;5110387;28;20427;-74
2021/03/03 09:50:06;;;;;;;74.63;40.42;;;9.40;96.20;;;;;;5111713;28;20884;-74
2021/03/03 09:52:35;;;;;;;77.50;42.75;;;9.40;96.30;;;;;;5112197;28;20449;-73
2021/03/03 09:55:01;;;;;;;82.82;41.78;;;9.40;96.40;;;;;;5109720;28;20435;-74
2021/03/03 09:57:28;;;;;;;83.55;42.53;;;9.50;96.50;;;;;;5110380;28;20770;-75
2021/03/03 09:59:57;;;;;;;78.22;42.40;;;9.50;96.30;;;;;;5111864;28;20411;-74
2021/03/03 10:02:25;;;;;;;75.20;41.35;;;9.60;96.50;;;;;;5109658;28;20428;-75
2021/03/03 10:04:52;;;;;;;75.57;40.63;;;9.60;96.60;;;;;;5110787;28;20420;-74
2021/03/03 10:07:21;;;;;;;82.75;43.00;;;9.70;96.20;;;;;;5111871;28;20412;-74
2021/03/03 10:09:49;;;;;;;82.50;42.97;;;9.70;96.00;;;;;;5110311;28;20415;-74
2021/03/03 10:12:17;;;;;;;74.80;40.53;;;9.70;96.20;;;;;;5111244;28;20430;-74
2021/03/03 10:14:56;;;;;;;82.03;41.93;;;9.70;96.10;;;;;;5109011;28;20423;-76
2021/03/03 10:17:31;;;;;;;90.60;43.65;;;9.70;95.70;;;;;;5109379;28;20892;-75
2021/03/03 10:19:58;;;;;;;89.60;43.43;;;9.60;96.00;;;;;;5109404;28;20409;-75
2021/03/03 10:22:25;;;;;;;80.88;42.70;;;9.60;96.00;;;;;;5110673;28;20514;-74
2021/03/03 10:25:03;;;;;;;84.43;43.03;;;9.60;96.20;;;;;;5111406;28;20422;-74
2021/03/03 10:27:36;;;;;;;72.47;39.28;;;9.60;96.60;;;;;;5110194;28;20408;-74
2021/03/03 10:30:25;;;;;;;74.68;39.03;;;9.60;95.60;;;;;;5108675;28;20416;-74
2021/03/03 10:32:53;;;;;;;77.45;40.25;;;9.50;95.40;;;;;;5111181;28;20408;-73
2021/03/03 10:35:20;;;;;;;74.05;39.05;;;9.50;95.50;;;;;;5109323;28;20427;-74
2021/03/03 10:37:46;;;;;;;78.28;39.95;;;9.60;95.60;;;;;;5109947;28;20407;-74
2021/03/03 10:40:14;;;;;;;67.50;38.08;;;9.60;95.70;;;;;;5111321;28;20425;-74
2021/03/03 10:42:41;;;;;;;65.72;36.28;;;9.60;95.40;;;;;;5110416;28;20930;-75
2021/03/03 10:45:17;;;;;;;66.53;36.38;;;9.70;95.00;;;;;;5109751;28;20416;-75
2021/03/03 10:47:48;;;;;;;69.70;37.40;;;9.70;95.00;;;;;;5109065;28;20473;-74
2021/03/03 10:50:15;;;;;;;72.95;38.28;;;9.80;95.10;;;;;;5110707;28;20416;-74
2021/03/03 10:52:53;;;;;;;73.10;39.80;;;9.90;95.10;;;;;;5108724;28;20916;-74
2021/03/03 10:55:21;;;;;;;74.33;39.83;;;9.90;94.70;;;;;;5110439;28;20481;-75
2021/03/03 10:58:01;;;;;;;77.55;40.47;;;10.00;94.70;;;;;;5110308;28;20495;-75
2021/03/03 11:00:27;;;;;;;73.88;40.08;;;10.10;94.70;;;;;;5110178;28;20403;-75
2021/03/03 11:03:03;;;;;;;71.00;38.22;;;10.10;94.20;;;;;;5109711;28;20780;-74
2021/03/03 11:05:29;;;;;;;74.93;39.60;;;10.10;93.80;;;;;;5110438;28;20471;-75
2021/03/03 11:07:56;;;;;;;76.53;39.17;;;10.00;93.90;;;;;;5109165;28;20412;-73
2021/03/03 11:10:22;;;;;;;77.50;39.33;;;10.00;93.90;;;;;;5108901;28;20465;-73
2021/03/03 11:12:49;;;;;;;75.10;40.40;;;10.00;94.50;;;;;;5110289;28;20412;-74
2021/03/03 11:15:16;;;;;;;81.13;42.42;;;10.00;94.00;;;;;;5109586;28;20496;-73
2021/03/03 11:17:43;;;;;;;80.47;41.73;;;10.00;94.10;;;;;;5109153;28;20408;-74
2021/03/03 11:20:11;;;;;;;82.40;42.85;;;10.00;94.30;;;;;;5108724;28;20762;-75
2021/03/03 11:22:39;;;;;;;77.43;41.05;;;10.00;94.30;;;;;;5110397;28;20802;-73
2021/03/03 11:25:06;;;;;;;78.68;41.03;;;10.00;94.30;;;;;;5109614;28;20454;-73
2021/03/03 11:27:32;;;;;;;75.18;40.55;;;10.10;94.00;;;;;;5109561;28;20411;-74
2021/03/03 11:29:59;;;;;;;76.23;39.80;;;10.10;94.00;;;;;;5110302;28;20404;-73
2021/03/03 11:32:25;;;;;;;67.68;36.20;;;10.10;93.80;;;;;;5109899;28;20412;-74
2021/03/03 11:34:52;;;;;;;68.85;36.92;;;10.00;93.30;;;;;;5109531;28;20425;-74
2021/03/03 11:37:19;;;;;;;67.43;36.28;;;10.00;93.10;;;;;;5109255;28;20408;-73
2021/03/03 11:39:45;;;;;;;69.25;37.58;;;10.00;93.00;;;;;;5108246;28;20434;-74
2021/03/03 11:42:12;;;;;;;70.20;37.13;;;10.00;93.10;;;;;;5110140;28;20412;-74
2021/03/03 11:44:38;;;;;;;72.07;38.80;;;10.00;93.10;;;;;;5109554;28;20419;-74
2021/03/03 11:47:05;;;;;;;72.77;38.43;;;10.10;93.00;;;;;;5109999;28;20420;-74
2021/03/03 11:49:31;;;;;;;79.03;40.17;;;10.20;93.00;;;;;;5109663;28;20408;-73
2021/03/03 11:51:58;;;;;;;83.18;42.25;;;10.20;92.60;;;;;;5110082;28;20404;-74
2021/03/03 11:54:25;;;;;;;82.82;40.53;;;10.20;92.60;;;;;;5108953;28;20769;-75
2021/03/03 11:56:52;;;;;;;91.10;43.13;;;10.10;92.60;;;;;;5107285;28;20420;-73
2021/03/03 11:59:18;;;;;;;97.57;45.38;;;10.10;92.80;;;;;;5109567;28;20407;-73
2021/03/03 12:01:45;;;;;;;101.57;46.10;;;10.10;92.90;;;;;;5106899;28;20412;-73
2021/03/03 12:04:11;;;;;;;104.03;46.85;;;10.10;93.10;;;;;;5109334;28;20556;-74
2021/03/03 12:06:37;;;;;;;105.88;47.83;;;10.10;93.30;;;;;;5108217;28;20419;-73
2021/03/03 12:09:04;;;;;;;106.25;47.45;;;10.10;93.50;;;;;;5108914;28;20420;-75
2021/03/03 12:11:31;;;;;;;107.47;46.97;;;10.10;93.60;;;;;;5109149;28;20408;-74
2021/03/03 12:13:57;;;;;;;106.70;47.57;;;10.20;93.70;;;;;;5108311;28;20396;-74
2021/03/03 12:16:24;;;;;;;102.73;46.70;;;10.20;93.40;;;;;;5109554;28;20419;-74
2021/03/03 12:18:50;;;;;;;102.05;45.97;;;10.20;93.30;;;;;;5108449;28;20408;-74
2021/03/03 12:21:16;;;;;;;98.28;44.42;;;10.30;93.30;;;;;;5108371;28;20400;-74
2021/03/03 12:23:43;;;;;;;90.15;42.38;;;10.30;93.20;;;;;;5107503;28;20888;-74
2021/03/03 12:26:09;;;;;;;88.55;41.13;;;10.40;92.70;;;;;;5109771;28;20408;-74
2021/03/03 12:28:36;;;;;;;97.65;42.83;;;10.40;92.40;;;;;;5105273;28;20994;-73
2021/03/03 12:31:03;;;;;;;105.68;45.38;;;10.40;92.30;;;;;;5102080;28;20791;-75
2021/03/03 12:33:29;;;;;;;105.07;45.40;;;10.50;92.20;;;;;;5104424;28;20435;-73
2021/03/03 12:35:55;;;;;;;106.97;45.50;;;10.40;92.20;;;;;;5102602;28;20945;-73
2021/03/03 12:38:22;;;;;;;106.17;45.40;;;10.40;92.00;;;;;;5103960;28;20448;-73
2021/03/03 12:40:48;;;;;;;108.30;46.78;;;10.40;92.30;;;;;;5103008;28;20423;-73